Time;durP1;ratioP1;P1;durP2;ratioP2;P2;SDS_P1;SDS_P2;PMS_P1;PMS_P2;Temp;Humidity;BMP_temperature;BMP_pressure;BME280_temperature;BME280_humidity;BME280_pressure;Samples;Min_cycle;Max_cycle;Signal;HPM_P1;HPM_P2
2022/07/26 00:02:02;;;;;;;4.15;2.83;;;;;;;20.63;46.66;98748.31;4347387;33;34521;-78
2022/07/26 00:04:31;;;;;;;3.87;2.53;;;;;;;20.55;46.73;98755.81;4347194;33;33601;-83
2022/07/26 00:06:59;;;;;;;4.30;2.92;;;;;;;20.40;47.79;98751.44;4348836;33;33922;-78
2022/07/26 00:09:26;;;;;;;8.25;2.97;;;;;;;20.28;48.32;98747.78;4333392;33;240070;-78
2022/07/26 00:11:55;;;;;;;5.07;2.65;;;;;;;20.12;48.04;98753.13;4347270;33;34504;-78
2022/07/26 00:14:22;;;;;;;6.05;2.85;;;;;;;20.34;46.87;98746.53;4346986;33;33514;-78
2022/07/26 00:16:50;;;;;;;5.93;2.70;;;;;;;20.34;46.76;98742.09;4347083;33;34843;-81
2022/07/26 00:19:18;;;;;;;7.45;2.90;;;;;;;20.22;47.19;98743.72;4346563;33;35047;-78
2022/07/26 00:21:47;;;;;;;4.87;2.95;;;;;;;19.91;47.10;98731.47;4348674;33;34648;-78
2022/07/26 00:24:14;;;;;;;4.78;2.80;;;;;;;20.15;47.42;98734.41;4346997;33;33706;-78
2022/07/26 00:26:43;;;;;;;8.88;3.47;;;;;;;20.15;47.21;98729.13;4348669;33;33998;-78
2022/07/26 00:29:10;;;;;;;8.77;3.10;;;;;;;20.09;46.55;98726.88;4346750;33;35027;-79
2022/07/26 00:31:38;;;;;;;5.97;3.35;;;;;;;19.93;47.08;98723.44;4344856;33;34049;-78
2022/07/26 00:34:07;;;;;;;5.75;3.33;;;;;;;19.88;48.60;98718.41;4346675;33;33697;-78
2022/07/26 00:36:34;;;;;;;10.57;3.67;;;;;;;19.69;47.78;98724.75;4346944;33;33789;-78
2022/07/26 00:39:08;;;;;;;5.43;2.85;;;;;;;19.55;47.77;98719.41;4346687;33;35200;-78
2022/07/26 00:41:37;;;;;;;7.68;3.92;;;;;;;19.67;48.55;98725.78;4348596;33;34485;-78
2022/07/26 00:44:04;;;;;;;5.53;3.35;;;;;;;19.78;47.83;98711.97;4346561;33;33832;-78
2022/07/26 00:46:32;;;;;;;5.28;2.87;;;;;;;19.78;48.54;98727.81;4347056;33;34756;-78
2022/07/26 00:49:00;;;;;;;4.05;2.70;;;;;;;19.73;48.13;98728.06;4346880;33;35032;-83
2022/07/26 00:51:28;;;;;;;7.05;3.62;;;;;;;19.52;49.93;98723.09;4335423;33;34507;-78
2022/07/26 00:53:57;;;;;;;5.35;2.83;;;;;;;19.52;48.44;98711.69;4346409;33;33664;-78
2022/07/26 00:56:25;;;;;;;4.53;3.00;;;;;;;19.51;47.61;98712.59;4348495;33;34763;-78
2022/07/26 00:58:52;;;;;;;6.93;2.87;;;;;;;19.49;47.36;98714.50;4346944;33;35022;-78
2022/07/26 01:01:20;;;;;;;5.37;3.35;;;;;;;19.48;48.45;98707.50;4323683;33;34371;-82
2022/07/26 01:03:52;;;;;;;4.60;2.72;;;;;;;19.55;48.04;98710.63;4347819;33;33643;-78
2022/07/26 01:06:22;;;;;;;5.72;2.70;;;;;;;19.56;48.94;98701.78;4320444;33;34662;-83
2022/07/26 01:08:54;;;;;;;5.90;3.50;;;;;;;19.45;48.64;98695.34;4344174;33;33465;-78
2022/07/26 01:11:22;;;;;;;5.30;3.05;;;;;;;19.45;48.78;98703.25;4305772;33;34251;-79
2022/07/26 01:13:50;;;;;;;5.90;3.30;;;;;;;19.56;48.73;98691.22;4317567;33;33689;-78
2022/07/26 01:16:18;;;;;;;6.55;3.33;;;;;;;19.60;48.92;98692.75;4345980;33;33315;-78
2022/07/26 01:18:46;;;;;;;6.18;3.12;;;;;;;19.51;49.46;98691.47;4348316;33;35969;-78
2022/07/26 01:21:14;;;;;;;5.62;3.25;;;;;;;19.35;49.03;98682.75;4346109;33;35053;-78
2022/07/26 01:23:43;;;;;;;4.80;2.80;;;;;;;19.44;49.12;98683.06;4346876;33;33626;-82
2022/07/26 01:26:11;;;;;;;6.85;3.75;;;;;;;19.40;49.33;98683.34;4346147;33;34098;-81
2022/07/26 01:28:41;;;;;;;6.50;3.53;;;;;;;19.25;49.69;98682.41;4348044;33;34973;-78
2022/07/26 01:31:09;;;;;;;4.95;3.03;;;;;;;19.12;50.07;98680.47;4344723;33;34448;-78
2022/07/26 01:33:37;;;;;;;8.30;3.00;;;;;;;19.00;50.11;98675.87;4348220;33;34617;-78
2022/07/26 01:36:05;;;;;;;5.68;3.40;;;;;;;19.08;50.14;98670.19;4343864;33;33921;-78
2022/07/26 01:38:33;;;;;;;6.62;3.10;;;;;;;18.99;49.92;98661.00;4346113;33;34853;-78
2022/07/26 01:41:01;;;;;;;5.95;3.08;;;;;;;19.02;49.80;98666.09;4333117;33;35581;-82
2022/07/26 01:43:29;;;;;;;4.82;2.97;;;;;;;19.05;49.92;98659.81;4334630;33;33842;-78
2022/07/26 01:45:57;;;;;;;5.53;3.20;;;;;;;19.06;50.80;98659.72;4344683;33;33931;-78
2022/07/26 01:48:26;;;;;;;4.60;2.92;;;;;;;18.89;51.51;98659.81;4347739;33;35078;-78
2022/07/26 01:50:53;;;;;;;4.50;3.03;;;;;;;19.09;50.64;98651.59;4345809;33;35283;-78
2022/07/26 01:53:22;;;;;;;5.12;3.40;;;;;;;19.12;51.21;98651.44;4348085;33;33884;-78
2022/07/26 01:55:50;;;;;;;4.87;3.15;;;;;;;19.07;50.56;98656.12;4345742;33;33920;-79
2022/07/26 01:58:18;;;;;;;5.18;3.15;;;;;;;19.05;50.57;98655.38;4342186;33;35065;-78
2022/07/26 02:00:47;;;;;;;6.03;3.58;;;;;;;18.98;50.58;98648.72;4345825;33;34540;-77
2022/07/26 02:03:15;;;;;;;5.72;3.00;;;;;;;18.87;50.05;98651.13;4346013;33;33492;-78
2022/07/26 02:05:43;;;;;;;9.20;3.75;;;;;;;19.21;50.74;98649.22;4345736;33;34033;-78
2022/07/26 02:08:11;;;;;;;4.95;3.28;;;;;;;19.34;49.96;98650.19;4347551;33;35862;-78
2022/07/26 02:13:31;;;;;;;7.32;3.75;;;;;;;19.33;50.80;98649.34;4348797;33;33731;-78
2022/07/26 02:16:00;;;;;;;6.80;3.20;;;;;;;18.24;54.99;98655.38;4341350;33;34166;-78
2022/07/26 02:18:29;;;;;;;5.00;3.28;;;;;;;19.14;52.97;98667.19;4346498;33;35095;-78
2022/07/26 02:20:58;;;;;;;5.82;3.90;;;;;;;19.61;50.48;98662.75;4347424;33;34501;-78
2022/07/26 02:23:27;;;;;;;6.45;3.80;;;;;;;19.39;51.01;98658.72;4324432;33;33617;-81
2022/07/26 02:25:55;;;;;;;6.00;3.85;;;;;;;19.26;51.19;98668.28;4343552;33;33818;-81
2022/07/26 02:28:23;;;;;;;6.50;3.85;;;;;;;19.19;51.85;98659.03;4349374;33;36183;-77
2022/07/26 02:30:51;;;;;;;7.22;3.87;;;;;;;18.96;51.45;98662.97;4347491;33;34480;-81
2022/07/26 02:33:19;;;;;;;6.55;3.90;;;;;;;19.30;50.60;98660.09;4347733;33;34392;-81
2022/07/26 02:35:47;;;;;;;7.80;3.62;;;;;;;19.47;51.30;98666.19;4347363;33;34035;-81
2022/07/26 02:38:15;;;;;;;8.43;3.65;;;;;;;19.46;51.92;98662.69;4347503;33;34891;-81
2022/07/26 02:40:43;;;;;;;10.98;4.93;;;;;;;19.19;53.14;98666.94;4347263;33;34385;-81
2022/07/26 02:43:11;;;;;;;8.82;3.95;;;;;;;19.22;52.45;98672.03;4349084;33;33680;-81
2022/07/26 02:45:39;;;;;;;5.15;3.60;;;;;;;19.29;52.26;98663.69;4334257;33;33959;-77
2022/07/26 02:48:07;;;;;;;5.53;3.90;;;;;;;19.37;51.90;98662.38;4349190;33;35229;-78
2022/07/26 02:50:35;;;;;;;6.47;3.37;;;;;;;19.25;50.93;98653.38;4345258;33;34635;-77
2022/07/26 02:53:03;;;;;;;6.43;3.75;;;;;;;19.45;50.76;98658.38;4349360;33;34633;-81
2022/07/26 02:55:31;;;;;;;7.82;4.05;;;;;;;19.38;50.97;98646.47;4345539;33;34009;-79
2022/07/26 02:57:59;;;;;;;8.60;3.78;;;;;;;19.17;51.17;98655.62;4348793;33;35112;-78
2022/07/26 03:00:27;;;;;;;5.70;3.62;;;;;;;19.64;50.78;98659.91;4347271;33;34641;-78
2022/07/26 03:02:55;;;;;;;5.97;3.80;;;;;;;19.65;52.27;98653.72;4349057;33;33820;-77
2022/07/26 03:05:23;;;;;;;5.70;3.70;;;;;;;19.49;51.62;98659.87;4345652;33;33890;-80
2022/07/26 03:07:51;;;;;;;7.00;3.70;;;;;;;19.37;52.14;98659.75;4335688;33;35156;-79
2022/07/26 03:10:19;;;;;;;6.53;3.97;;;;;;;19.41;53.03;98655.97;4347003;33;35408;-77
2022/07/26 03:12:47;;;;;;;7.28;4.55;;;;;;;19.25;51.95;98656.00;4348870;33;33641;-77
2022/07/26 03:15:15;;;;;;;6.75;3.90;;;;;;;19.31;51.64;98660.97;4345576;33;33942;-77
2022/07/26 03:17:43;;;;;;;6.15;3.90;;;;;;;19.33;51.69;98656.44;4348889;33;35107;-77
2022/07/26 03:20:11;;;;;;;5.70;3.72;;;;;;;19.35;52.38;98662.47;4343357;33;35295;-80
2022/07/26 03:22:41;;;;;;;8.80;3.70;;;;;;;19.49;52.15;98669.59;4349009;33;33715;-77
2022/07/26 03:25:09;;;;;;;6.03;3.85;;;;;;;19.32;52.27;98666.16;4346718;33;34038;-80
2022/07/26 03:27:37;;;;;;;6.50;4.57;;;;;;;19.43;52.12;98668.16;4348750;33;35147;-77
2022/07/26 03:30:06;;;;;;;9.18;3.75;;;;;;;19.48;52.63;98668.75;4346912;33;35321;-79
2022/07/26 03:32:35;;;;;;;11.60;4.05;;;;;;;19.37;52.66;98663.22;4348798;33;33642;-77
2022/07/26 03:35:03;;;;;;;6.22;3.78;;;;;;;19.39;52.50;98663.97;4345327;33;32722;-77
2022/07/26 03:37:32;;;;;;;7.93;4.03;;;;;;;19.44;52.66;98666.38;4348617;33;35920;-77
2022/07/26 03:40:14;;;;;;;6.12;4.40;;;;;;;19.31;53.51;98660.97;4346820;33;34402;-77
2022/07/26 03:42:44;;;;;;;8.35;3.95;;;;;;;19.38;53.47;98658.81;4348828;33;33866;-77
2022/07/26 03:45:13;;;;;;;5.97;3.92;;;;;;;19.46;52.67;98654.78;4346776;33;34759;-77
2022/07/26 03:47:41;;;;;;;6.25;3.83;;;;;;;19.60;53.42;98653.13;4348760;33;35985;-81
2022/07/26 03:50:12;;;;;;;5.57;3.72;;;;;;;19.55;53.32;98649.91;4346347;33;34466;-81
2022/07/26 03:52:40;;;;;;;7.30;4.00;;;;;;;19.54;53.29;98645.56;4335785;33;33182;-79
2022/07/26 03:58:06;;;;;;;10.82;3.95;;;;;;;19.99;51.77;98651.72;4308364;33;35024;-81
2022/07/26 04:00:34;;;;;;;9.55;4.47;;;;;;;20.26;53.49;98649.19;4346487;33;34051;-81
2022/07/26 04:03:02;;;;;;;8.80;3.70;;;;;;;20.46;53.15;98640.84;4335437;33;33661;-79
2022/07/26 04:05:30;;;;;;;6.15;4.03;;;;;;;20.57;53.10;98637.53;4341356;33;34055;-78
2022/07/26 04:07:59;;;;;;;6.50;4.20;;;;;;;20.88;51.82;98632.97;4348086;33;35028;-81
2022/07/26 04:10:29;;;;;;;6.07;3.62;;;;;;;20.98;51.54;98633.22;4346696;33;35149;-77
2022/07/26 04:12:56;;;;;;;13.43;5.18;;;;;;;21.18;51.51;98629.28;4349016;33;33642;-77
2022/07/26 04:15:24;;;;;;;15.73;4.22;;;;;;;21.15;52.28;98625.03;4345608;33;33774;-78
2022/07/26 04:17:52;;;;;;;10.73;4.00;;;;;;;21.36;52.34;98633.34;4348743;33;34742;-78
2022/07/26 04:20:20;;;;;;;11.27;4.00;;;;;;;21.05;54.14;98631.03;4333326;33;34588;-78
2022/07/26 04:22:48;;;;;;;7.80;3.97;;;;;;;21.29;54.60;98631.22;4348708;33;34401;-78
2022/07/26 04:25:16;;;;;;;9.88;4.80;;;;;;;21.91;52.70;98630.59;4346867;33;33575;-78
2022/07/26 04:27:44;;;;;;;20.23;5.22;;;;;;;22.15;52.68;98631.56;4348614;33;34908;-78
2022/07/26 04:30:12;;;;;;;9.10;4.05;;;;;;;22.49;51.41;98631.84;4346757;33;34452;-78
2022/07/26 04:32:43;;;;;;;16.23;5.03;;;;;;;22.40;51.00;98656.41;4348694;33;33813;-78
2022/07/26 04:35:14;;;;;;;11.90;5.25;;;;;;;22.34;51.37;98701.91;4344591;33;34034;-77
2022/07/26 04:37:43;;;;;;;21.15;5.62;;;;;;;22.65;45.84;98755.50;4347072;33;34929;-77
2022/07/26 04:40:16;;;;;;;8.60;4.62;;;;;;;22.62;43.31;98737.13;4333446;33;34647;-78
2022/07/26 04:42:49;;;;;;;9.27;4.22;;;;;;;23.04;42.13;98696.03;4348556;33;33790;-78
2022/07/26 04:45:17;;;;;;;6.25;4.30;;;;;;;23.27;42.72;98715.66;4333521;33;34006;-78
2022/07/26 04:47:49;;;;;;;11.98;4.05;;;;;;;23.76;40.61;98694.38;4348439;33;35945;-78
2022/07/26 04:50:18;;;;;;;9.07;3.85;;;;;;;23.95;41.05;98718.63;4344463;33;35128;-78
2022/07/26 04:52:47;;;;;;;6.87;4.30;;;;;;;24.22;39.85;98712.16;4346967;33;33407;-78
2022/07/26 04:55:15;;;;;;;5.95;3.80;;;;;;;24.48;39.32;98709.28;4333594;33;34581;-78
2022/07/26 04:57:44;;;;;;;7.68;3.92;;;;;;;24.59;40.18;98704.00;4348433;33;35073;-78
2022/07/26 05:00:20;;;;;;;6.55;3.50;;;;;;;24.69;38.62;98707.63;4346488;33;33717;-78
2022/07/26 05:02:55;;;;;;;6.97;4.30;;;;;;;25.54;37.50;98707.00;4348486;33;33786;-78
2022/07/26 05:05:25;;;;;;;6.05;3.60;;;;;;;26.01;36.26;98719.16;4342119;33;34014;-78
2022/07/26 05:07:56;;;;;;;12.02;4.30;;;;;;;25.96;36.32;98703.56;4346998;33;35125;-78
2022/07/26 05:10:32;;;;;;;8.98;4.03;;;;;;;25.81;37.23;98700.31;4345912;33;34596;-78
2022/07/26 05:13:02;;;;;;;6.75;4.18;;;;;;;25.84;38.33;98713.41;4348340;33;34458;-78
2022/07/26 05:15:31;;;;;;;6.30;4.37;;;;;;;26.02;38.25;98702.19;4333448;33;33924;-78
2022/07/26 05:18:08;;;;;;;9.15;4.60;;;;;;;25.77;38.41;98709.56;4335427;33;35339;-78
2022/07/26 05:20:40;;;;;;;10.38;4.82;;;;;;;26.02;37.93;98708.38;4346385;33;35289;-78
2022/07/26 05:23:08;;;;;;;7.75;4.45;;;;;;;26.17;38.00;98708.91;4348142;33;33859;-77
2022/07/26 05:25:37;;;;;;;15.45;4.90;;;;;;;26.13;37.97;98709.28;4346264;33;33900;-77
2022/07/26 05:28:05;;;;;;;9.10;4.30;;;;;;;26.07;37.97;98708.00;4348010;33;35174;-77
2022/07/26 05:30:33;;;;;;;12.52;4.95;;;;;;;25.74;38.87;98707.16;4346160;33;34526;-78
2022/07/26 05:33:01;;;;;;;11.35;5.35;;;;;;;26.23;38.62;98702.19;4346404;33;34491;-77
2022/07/26 05:35:29;;;;;;;10.23;5.10;;;;;;;26.85;37.83;98706.56;4333156;33;33978;-78
2022/07/26 05:37:57;;;;;;;8.18;4.72;;;;;;;26.80;38.79;98700.78;4346334;33;35184;-78
2022/07/26 05:40:25;;;;;;;9.75;4.68;;;;;;;27.04;38.03;98695.06;4346016;33;34498;-78
2022/07/26 05:42:52;;;;;;;10.68;4.53;;;;;;;27.60;37.54;98708.81;4347886;33;33562;-78
2022/07/26 05:45:21;;;;;;;8.90;4.40;;;;;;;28.14;36.52;98709.22;4344202;33;33926;-77
2022/07/26 05:47:50;;;;;;;8.43;5.00;;;;;;;28.07;37.67;98703.59;4349532;33;34998;-78
2022/07/26 05:50:18;;;;;;;8.02;4.72;;;;;;;27.56;39.50;98699.41;4347814;33;35519;-78
2022/07/26 05:52:46;;;;;;;11.02;5.25;;;;;;;28.16;38.16;98708.09;4348167;33;33930;-78
2022/07/26 05:55:14;;;;;;;11.65;4.50;;;;;;;27.85;39.22;98709.22;4347330;33;33918;-78
2022/07/26 05:57:46;;;;;;;12.98;4.93;;;;;;;28.25;39.10;98700.19;4349624;33;35009;-77
2022/07/26 06:00:17;;;;;;;9.23;5.07;;;;;;;27.87;40.90;98702.75;4347775;33;34516;-77
2022/07/26 06:02:45;;;;;;;14.52;5.68;;;;;;;27.98;40.85;98693.75;4349614;33;33635;-78
2022/07/26 06:05:14;;;;;;;10.30;4.62;;;;;;;28.33;40.30;98697.63;4347084;33;33978;-77
2022/07/26 06:07:42;;;;;;;9.85;4.70;;;;;;;27.91;42.08;98704.19;4340104;33;35035;-77
2022/07/26 06:10:11;;;;;;;7.97;4.28;;;;;;;28.37;41.82;98707.06;4345836;33;34839;-78
2022/07/26 06:12:38;;;;;;;11.95;4.95;;;;;;;28.69;41.15;98708.53;4349585;33;34509;-80
2022/07/26 06:15:07;;;;;;;8.27;5.25;;;;;;;28.96;40.91;98712.19;4346978;33;33337;-78
2022/07/26 06:17:42;;;;;;;16.33;5.03;;;;;;;29.32;41.19;98709.62;4320210;33;35880;-78
2022/07/26 06:20:10;;;;;;;10.65;5.50;;;;;;;28.82;42.68;98711.72;4319343;33;35195;-78
2022/07/26 06:22:38;;;;;;;14.32;5.78;;;;;;;29.27;42.12;98712.75;4320069;33;33695;-77
2022/07/26 06:25:07;;;;;;;10.82;5.03;;;;;;;29.07;42.48;98714.69;4327558;33;33591;-78
2022/07/26 06:27:34;;;;;;;14.43;5.28;;;;;;;29.37;42.33;98716.22;4348545;33;34430;-77
2022/07/26 06:30:03;;;;;;;12.35;4.82;;;;;;;29.40;42.03;98721.28;4349418;33;34365;-78
2022/07/26 06:32:31;;;;;;;14.40;4.45;;;;;;;29.09;43.02;98715.38;4347536;33;33598;-78
2022/07/26 06:34:59;;;;;;;13.85;5.82;;;;;;;29.53;41.98;98712.84;4349391;33;34036;-78
2022/07/26 06:37:27;;;;;;;13.07;5.22;;;;;;;29.34;42.40;98708.47;4340467;33;35165;-79
2022/07/26 06:39:55;;;;;;;15.05;5.60;;;;;;;28.67;44.05;98711.34;4334396;33;34439;-79
2022/07/26 06:42:24;;;;;;;11.43;4.55;;;;;;;28.73;43.99;98709.91;4334527;33;33258;-80
2022/07/26 06:44:52;;;;;;;11.32;5.25;;;;;;;28.55;44.29;98708.03;4334327;33;34016;-79
2022/07/26 06:47:20;;;;;;;10.02;4.62;;;;;;;28.76;43.83;98706.94;4334492;33;35089;-79
2022/07/26 06:49:48;;;;;;;8.48;4.90;;;;;;;28.73;44.18;98717.94;4334509;33;34382;-78
2022/07/26 06:52:15;;;;;;;10.80;4.97;;;;;;;29.32;43.11;98709.62;4337738;33;33553;-79
2022/07/26 06:54:44;;;;;;;17.37;5.25;;;;;;;28.92;43.71;98708.97;4349296;33;33977;-79
2022/07/26 06:57:12;;;;;;;6.68;4.45;;;;;;;29.17;43.38;98696.72;4347408;33;35091;-79
2022/07/26 06:59:40;;;;;;;9.32;5.32;;;;;;;29.85;41.53;98698.06;4348068;33;33870;-78
2022/07/26 07:02:08;;;;;;;10.25;4.65;;;;;;;29.49;42.71;98703.44;4347216;33;34603;-79
2022/07/26 07:04:36;;;;;;;13.43;5.00;;;;;;;29.91;41.75;98691.22;4347525;33;34086;-79
2022/07/26 07:07:05;;;;;;;18.27;4.80;;;;;;;30.06;40.96;98692.34;4347278;33;35053;-78
2022/07/26 07:09:34;;;;;;;6.30;4.55;;;;;;;30.05;41.37;98702.25;4349076;33;35361;-78
2022/07/26 07:12:03;;;;;;;10.73;4.97;;;;;;;30.62;40.05;98692.88;4347078;33;34153;-81
2022/07/26 07:14:38;;;;;;;9.65;4.60;;;;;;;30.19;40.57;98691.94;4340552;33;34042;-78
2022/07/26 07:17:07;;;;;;;10.15;4.30;;;;;;;30.28;41.08;98701.72;4347195;33;35067;-78
2022/07/26 07:19:40;;;;;;;10.85;5.03;;;;;;;30.71;40.00;98688.38;4336408;33;34396;-78
2022/07/26 07:22:10;;;;;;;10.05;4.10;;;;;;;30.24;40.44;98694.97;4343840;33;33675;-79
2022/07/26 07:24:40;;;;;;;6.25;3.85;;;;;;;30.61;39.60;98696.56;4347088;33;34260;-77
2022/07/26 07:27:09;;;;;;;8.50;4.00;;;;;;;30.26;40.22;98690.28;4333835;33;34666;-77
2022/07/26 07:29:38;;;;;;;13.05;4.25;;;;;;;30.75;40.05;98700.50;4347286;33;34382;-79
2022/07/26 07:32:09;;;;;;;9.95;4.62;;;;;;;31.00;39.27;98704.16;4332419;33;34277;-78
2022/07/26 07:34:49;;;;;;;5.93;4.00;;;;;;;31.05;39.22;98699.13;4349177;33;33868;-77
2022/07/26 07:37:17;;;;;;;7.43;4.35;;;;;;;31.28;38.29;98704.72;4346890;33;35187;-78
2022/07/26 07:39:47;;;;;;;11.80;4.12;;;;;;;31.27;37.97;98686.88;4348714;33;34781;-77
2022/07/26 07:42:18;;;;;;;6.60;3.92;;;;;;;31.25;38.00;98696.16;4345155;33;33701;-78
2022/07/26 07:44:48;;;;;;;7.57;4.12;;;;;;;31.09;38.74;98697.78;4347254;33;33955;-79
2022/07/26 07:47:16;;;;;;;11.27;4.05;;;;;;;30.87;39.39;98706.44;4347104;33;36103;-78
2022/07/26 07:49:45;;;;;;;8.05;4.07;;;;;;;30.66;39.59;98686.19;4348708;33;34434;-81
2022/07/26 07:52:12;;;;;;;6.78;3.78;;;;;;;30.22;40.62;98713.09;4347004;33;34282;-82
2022/07/26 07:54:41;;;;;;;12.80;4.03;;;;;;;30.26;40.87;98719.84;4335672;33;34801;-85
2022/07/26 07:57:10;;;;;;;9.02;4.22;;;;;;;30.11;41.24;98727.63;4339863;33;35157;-84
2022/07/26 07:59:40;;;;;;;10.15;4.30;;;;;;;29.71;42.12;98726.25;4333880;33;34407;-86
2022/07/26 08:02:11;;;;;;;10.23;4.55;;;;;;;29.65;42.18;98730.41;4341972;33;33721;-78
2022/07/26 08:04:39;;;;;;;16.70;4.40;;;;;;;29.56;42.46;98741.19;4348608;33;34115;-82
2022/07/26 08:07:08;;;;;;;16.23;4.60;;;;;;;29.53;43.77;98738.84;4346718;33;35932;-78
2022/07/26 08:09:36;;;;;;;8.45;4.25;;;;;;;29.57;42.52;98726.81;4347923;33;34780;-81
2022/07/26 08:12:10;;;;;;;8.95;4.28;;;;;;;29.46;43.10;98720.66;4327672;33;33705;-80
2022/07/26 08:14:38;;;;;;;7.53;4.18;;;;;;;29.77;42.23;98719.47;4348415;33;34093;-81
2022/07/26 08:17:08;;;;;;;18.45;4.72;;;;;;;29.66;42.80;98715.97;4346697;33;34942;-78
2022/07/26 08:19:36;;;;;;;6.53;3.87;;;;;;;29.78;42.44;98710.44;4347043;33;35328;-82
2022/07/26 08:22:09;;;;;;;10.02;4.28;;;;;;;30.37;41.62;98716.94;4346586;33;33685;-82
2022/07/26 08:24:38;;;;;;;6.50;3.72;;;;;;;30.92;40.07;98706.75;4335225;33;34800;-83
2022/07/26 08:27:06;;;;;;;10.68;4.15;;;;;;;30.41;41.43;98706.72;4346597;33;35891;-79
2022/07/26 08:30:36;;;;;;;;;;;;;;;32.29;38.59;98703.59;4490502;32;239561;-82
2022/07/26 08:33:04;;;;;;;8.43;3.75;;;;;;;32.29;38.59;98703.59;4479967;32;32864;-78
2022/07/26 08:35:32;;;;;;;6.93;4.20;;;;;;;31.80;38.61;98703.63;4467354;32;34561;-80
2022/07/26 08:38:00;;;;;;;8.65;3.60;;;;;;;31.75;39.31;98697.94;4465898;32;34235;-81
2022/07/26 08:40:28;;;;;;;8.27;3.75;;;;;;;31.93;38.75;98709.34;4480975;32;34746;-82
2022/07/26 08:42:56;;;;;;;12.70;4.07;;;;;;;31.58;39.22;98715.06;4480955;32;33330;-81
2022/07/26 08:45:26;;;;;;;9.77;3.47;;;;;;;31.27;39.52;98713.78;4481828;32;34627;-83
2022/07/26 08:47:55;;;;;;;6.37;3.55;;;;;;;31.18;39.31;98699.50;4467220;32;35182;-80
2022/07/26 08:50:44;;;;;;;7.25;3.70;;;;;;;31.17;40.07;98716.62;4481033;32;34096;-84
2022/07/26 08:53:12;;;;;;;9.15;4.12;;;;;;;31.15;39.47;98715.13;4481311;32;33222;-83
2022/07/26 08:55:40;;;;;;;6.53;4.12;;;;;;;31.62;38.52;98711.03;4454926;32;33964;-82
2022/07/26 08:58:32;;;;;;;9.18;3.95;;;;;;;30.98;39.93;98720.44;4480128;32;35063;-81
2022/07/26 09:01:11;;;;;;;7.60;3.33;;;;;;;30.85;40.03;98725.41;4466833;32;33705;-80
2022/07/26 09:03:41;;;;;;;6.25;3.47;;;;;;;30.79;40.21;98731.41;4481749;32;34303;-81
2022/07/26 09:06:14;;;;;;;7.60;3.87;;;;;;;30.23;41.13;98736.25;4465808;32;33517;-79
2022/07/26 09:08:45;;;;;;;7.10;3.90;;;;;;;30.14;41.05;98727.28;4481499;32;35998;-81
2022/07/26 09:11:27;;;;;;;17.08;4.90;;;;;;;29.27;43.37;98742.25;4481050;32;33636;-82
2022/07/26 09:14:00;;;;;;;9.40;4.87;;;;;;;29.13;43.82;98754.28;4481744;32;33459;-79
2022/07/26 09:16:29;;;;;;;7.62;4.18;;;;;;;28.82;44.35;98751.91;4479869;32;33845;-78
2022/07/26 09:19:16;;;;;;;10.25;4.85;;;;;;;28.45;45.60;98766.09;4481551;32;34940;-77
2022/07/26 09:21:45;;;;;;;8.02;4.00;;;;;;;28.07;46.65;98772.34;4479997;32;34007;-81
2022/07/26 09:24:33;;;;;;;10.65;4.40;;;;;;;28.39;46.07;98780.06;4481532;32;33305;-81
2022/07/26 09:27:05;;;;;;;6.28;3.97;;;;;;;27.98;46.85;98792.78;4467113;32;34024;-80
2022/07/26 09:29:43;;;;;;;5.93;3.75;;;;;;;27.90;47.44;98814.00;4481478;32;35930;-82
2022/07/26 09:32:15;;;;;;;8.48;4.37;;;;;;;27.36;48.44;98832.22;4479852;32;35195;-80
2022/07/26 09:34:46;;;;;;;8.95;3.95;;;;;;;27.57;48.27;98850.87;4481552;32;34179;-78
2022/07/26 09:37:37;;;;;;;8.43;4.25;;;;;;;26.85;49.95;98861.50;4480439;32;33988;-79
2022/07/26 09:40:10;;;;;;;9.55;4.40;;;;;;;26.52;50.76;98883.88;4465189;32;35063;-77
2022/07/26 09:42:55;;;;;;;14.05;4.28;;;;;;;26.78;49.96;98868.34;4470045;32;34461;-76
2022/07/26 09:45:25;;;;;;;13.38;4.72;;;;;;;26.58;50.25;98853.16;4471028;32;34249;-77
2022/07/26 09:47:54;;;;;;;17.62;5.95;;;;;;;26.82;49.96;98813.66;4470332;32;33943;-76
2022/07/26 09:50:26;;;;;;;12.73;4.30;;;;;;;26.42;55.59;98816.22;4467599;32;34927;-77
2022/07/26 09:53:01;;;;;;;8.80;4.18;;;;;;;25.96;60.45;98839.62;4473539;32;34475;-77
2022/07/26 09:55:30;;;;;;;8.07;4.47;;;;;;;24.91;65.82;98860.38;4470550;32;34200;-77
2022/07/26 09:58:12;;;;;;;11.52;4.70;;;;;;;24.50;68.76;98857.25;4469931;32;34070;-77
2022/07/26 10:00:42;;;;;;;9.68;5.35;;;;;;;24.33;70.65;98845.22;4456889;32;36019;-79
2022/07/26 10:03:11;;;;;;;16.08;5.15;;;;;;;24.25;72.21;98802.41;4469933;32;35159;-77
2022/07/26 10:05:40;;;;;;;8.13;5.18;;;;;;;23.78;75.35;98786.34;4469987;32;33581;-77
2022/07/26 10:08:09;;;;;;;11.68;5.85;;;;;;;23.28;80.19;98810.34;4459555;32;33918;-77
2022/07/26 10:10:49;;;;;;;8.38;5.78;;;;;;;23.41;78.91;98817.41;4464455;32;35023;-77
2022/07/26 10:13:17;;;;;;;15.10;5.70;;;;;;;23.61;78.91;98824.81;4455861;32;35155;-76
2022/07/26 10:15:48;;;;;;;9.43;6.30;;;;;;;23.86;79.75;98841.66;4457031;32;33232;-78
2022/07/26 10:18:43;;;;;;;13.35;6.75;;;;;;;23.26;83.65;98854.75;4464424;32;33074;-78
2022/07/26 10:21:23;;;;;;;8.57;6.00;;;;;;;23.18;87.69;98857.09;4468845;32;35827;-80
2022/07/26 10:24:00;;;;;;;16.52;6.65;;;;;;;23.67;84.28;98869.53;4457194;32;34982;-81
2022/07/26 10:26:36;;;;;;;9.15;6.03;;;;;;;23.73;83.26;98872.72;4454793;32;34240;-77
2022/07/26 10:29:15;;;;;;;12.88;6.20;;;;;;;23.83;79.60;98881.75;4470463;32;34020;-81
2022/07/26 10:31:45;;;;;;;13.05;6.53;;;;;;;23.75;81.46;98876.94;4470623;32;35413;-79
2022/07/26 10:34:35;;;;;;;11.32;6.80;;;;;;;23.35;84.52;98890.44;4455731;32;34960;-79
2022/07/26 10:37:08;;;;;;;10.18;6.70;;;;;;;23.53;82.56;98882.97;4457092;32;33812;-78
2022/07/26 10:39:38;;;;;;;9.38;6.62;;;;;;;23.55;82.86;98869.59;4456042;32;33860;-80
2022/07/26 10:42:08;;;;;;;9.68;6.37;;;;;;;23.45;82.62;98875.56;4468794;32;35164;-79
2022/07/26 10:44:41;;;;;;;11.23;6.32;;;;;;;23.53;81.57;98867.03;4455281;32;33482;-81
2022/07/26 10:47:17;;;;;;;10.95;7.03;;;;;;;23.26;81.74;98873.34;4470798;32;33431;-82
2022/07/26 10:49:57;;;;;;;;;;;;;;;23.32;81.05;98877.38;4469191;32;33810;-81
2022/07/26 10:52:31;;;;;;;12.48;7.37;;;;;;;23.09;84.81;98884.31;4469405;32;36085;-83
2022/07/26 10:54:59;;;;;;;11.77;7.47;;;;;;;23.26;84.28;98893.78;4465776;32;34419;-77
2022/07/26 10:57:32;;;;;;;11.20;7.03;;;;;;;23.63;83.72;98897.31;4469905;32;34129;-77
2022/07/26 11:00:03;;;;;;;8.90;6.10;;;;;;;23.94;81.40;98908.41;4456686;32;32830;-77
2022/07/26 11:02:32;;;;;;;10.88;5.82;;;;;;;23.80;78.92;98900.56;4472026;32;35969;-78
2022/07/26 11:05:03;;;;;;;9.15;6.65;;;;;;;23.89;79.31;98899.91;4471551;32;34254;-77
2022/07/26 11:07:31;;;;;;;12.18;6.53;;;;;;;23.94;80.99;98892.44;4458231;32;34362;-77
2022/07/26 11:10:00;;;;;;;10.13;6.40;;;;;;;24.28;78.78;98889.09;4469373;32;34076;-77
2022/07/26 11:12:29;;;;;;;10.50;6.00;;;;;;;24.22;79.18;98877.94;4468448;32;34336;-79
2022/07/26 11:14:58;;;;;;;8.38;5.45;;;;;;;24.11;78.68;98875.25;4469353;32;34992;-77
2022/07/26 11:17:29;;;;;;;8.07;5.25;;;;;;;24.74;75.14;98875.00;4456643;32;33485;-81
2022/07/26 11:19:57;;;;;;;7.00;5.20;;;;;;;24.13;75.94;98881.31;4469337;32;34460;-77
2022/07/26 11:22:32;;;;;;;11.05;5.35;;;;;;;24.40;73.95;98881.03;4469485;32;35151;-78
2022/07/26 11:25:01;;;;;;;8.52;5.78;;;;;;;24.66;73.19;98875.59;4455538;32;35116;-77
2022/07/26 11:27:30;;;;;;;8.38;5.20;;;;;;;23.96;76.25;98871.91;4456410;32;33703;-78
2022/07/26 11:30:03;;;;;;;8.77;5.15;;;;;;;24.46;74.81;98870.91;4468518;32;34742;-77
2022/07/26 11:32:32;;;;;;;8.88;5.15;;;;;;;23.99;75.88;98874.34;4457488;32;35064;-78
2022/07/26 11:35:04;;;;;;;8.13;5.32;;;;;;;24.31;75.38;98883.56;4469179;32;35079;-78
2022/07/26 11:37:34;;;;;;;8.55;5.37;;;;;;;24.60;72.83;98878.72;4470449;32;33976;-77
2022/07/26 11:40:03;;;;;;;9.07;6.03;;;;;;;24.78;73.63;98876.47;4469450;32;33154;-77
2022/07/26 11:42:31;;;;;;;8.52;5.30;;;;;;;24.89;73.71;98881.81;4468661;32;34659;-77
2022/07/26 11:44:59;;;;;;;9.55;5.78;;;;;;;25.36;70.81;98873.78;4469585;32;34407;-77
2022/07/26 11:47:27;;;;;;;8.32;5.78;;;;;;;25.07;72.77;98866.19;4456357;32;32016;-78
2022/07/26 11:50:04;;;;;;;12.88;5.97;;;;;;;25.13;72.31;98865.75;4455519;32;34824;-77
2022/07/26 11:52:51;;;;;;;8.32;5.93;;;;;;;25.41;69.86;98860.91;4470121;32;35756;-78